createdAt,value
2022-12-22T00:00:59.299Z,3.08
2022-12-22T00:06:19.714Z,1.90
2022-12-22T00:11:40.752Z,3.15
2022-12-22T00:17:01.145Z,3.08
2022-12-22T00:22:32.310Z,2.00
2022-12-22T00:27:52.949Z,1.52
2022-12-22T00:33:13.421Z,1.90
2022-12-22T00:38:36.526Z,1.30
2022-12-22T00:43:56.969Z,1.77
2022-12-22T00:49:17.492Z,1.95
2022-12-22T00:54:38.829Z,1.63
2022-12-22T00:59:59.247Z,2.83
2022-12-22T01:05:19.773Z,1.50
2022-12-22T01:10:43.186Z,1.83
2022-12-22T01:16:03.952Z,1.60
2022-12-22T01:21:24.114Z,1.45
2022-12-22T01:26:44.680Z,1.38
2022-12-22T01:32:05.210Z,2.63
2022-12-22T01:37:25.607Z,4.78
2022-12-22T01:42:46.774Z,1.25
2022-12-22T01:48:07.349Z,1.48
2022-12-22T01:53:32.760Z,1.63
2022-12-22T01:58:58.462Z,1.15
2022-12-22T02:04:19.491Z,1.70
2022-12-22T02:09:54.861Z,1.90
2022-12-22T02:15:44.060Z,3.22
2022-12-22T02:21:14.515Z,2.53
2022-12-22T02:26:55.353Z,2.83
2022-12-22T02:32:16.392Z,2.25
2022-12-22T02:37:47.691Z,1.85
2022-12-22T02:43:43.948Z,3.13
2022-12-22T02:49:24.709Z,4.22
2022-12-22T02:54:47.210Z,5.10
2022-12-22T03:00:07.733Z,2.83
2022-12-22T03:05:28.053Z,3.45
2022-12-22T03:10:48.556Z,1.70
2022-12-22T03:16:10.024Z,2.80
2022-12-22T03:21:30.887Z,1.90
2022-12-22T03:26:33.569Z,1.75
2022-12-22T03:31:35.458Z,3.20
2022-12-22T03:36:37.205Z,2.70
2022-12-22T03:41:57.680Z,1.73
2022-12-22T03:46:59.391Z,2.30
2022-12-22T03:52:01.005Z,1.48
2022-12-22T03:57:02.679Z,1.85
2022-12-22T04:02:04.632Z,1.58
2022-12-22T04:07:06.499Z,3.10
2022-12-22T04:12:27.369Z,1.95
2022-12-22T04:17:29.035Z,2.10
2022-12-22T04:22:30.703Z,2.20
2022-12-22T04:27:32.537Z,2.03
2022-12-22T04:32:34.962Z,1.80
2022-12-22T04:37:37.220Z,0.90
2022-12-22T04:42:38.977Z,0.70
2022-12-22T04:47:40.666Z,3.90
2022-12-22T04:52:42.373Z,0.88
2022-12-22T04:57:44.020Z,1.80
2022-12-22T05:02:45.944Z,1.38
2022-12-22T05:07:47.625Z,3.30
2022-12-22T05:12:55.441Z,1.60
2022-12-22T05:17:58.261Z,0.80
2022-12-22T05:23:00.018Z,3.50
2022-12-22T05:28:01.900Z,4.38
2022-12-22T05:33:03.590Z,2.58
2022-12-22T05:38:05.214Z,1.58
2022-12-22T05:43:06.892Z,2.10
2022-12-22T05:48:08.637Z,2.75
2022-12-22T05:53:10.312Z,2.97
2022-12-22T05:58:12.040Z,2.50
2022-12-22T06:03:14.231Z,4.90
2022-12-22T06:08:16.352Z,7.28
2022-12-22T06:13:18.016Z,2.50
2022-12-22T06:18:19.637Z,1.83
2022-12-22T06:23:21.986Z,3.42
2022-12-22T06:28:24.071Z,0.95
2022-12-22T06:33:25.769Z,0.75
2022-12-22T06:38:28.468Z,1.27
2022-12-22T06:43:30.348Z,1.67
2022-12-22T06:48:31.970Z,1.10
2022-12-22T06:53:33.655Z,0.90
2022-12-22T06:58:35.311Z,0.88
2022-12-22T07:03:37.115Z,0.57
2022-12-22T07:08:38.908Z,1.05
2022-12-22T07:13:40.948Z,1.38
2022-12-22T07:18:43.084Z,0.50
2022-12-22T07:23:44.888Z,3.03
2022-12-22T07:28:46.571Z,3.63
2022-12-22T07:33:48.316Z,2.33
2022-12-22T07:38:51.541Z,2.65
2022-12-22T07:43:54.909Z,1.70
2022-12-22T07:49:15.376Z,2.33
2022-12-22T07:54:17.384Z,2.30
2022-12-22T07:59:19.824Z,1.58
2022-12-22T08:04:22.572Z,4.40
2022-12-22T08:09:24.572Z,3.67
2022-12-22T08:14:26.237Z,5.15
2022-12-22T08:19:27.901Z,2.30
2022-12-22T08:24:29.541Z,3.38
2022-12-22T08:29:38.421Z,2.92
2022-12-22T08:34:40.514Z,2.70
2022-12-22T08:39:44.320Z,4.60
2022-12-22T08:44:47.311Z,3.20
2022-12-22T08:49:49.759Z,2.30
2022-12-22T08:54:51.496Z,3.58
2022-12-22T08:59:53.144Z,3.45
2022-12-22T09:04:54.833Z,5.20
2022-12-22T09:09:58.337Z,7.32
2022-12-22T09:15:00.022Z,8.53
2022-12-22T09:20:02.377Z,6.57
2022-12-22T09:25:04.355Z,6.15
2022-12-22T09:30:06.890Z,12.70
2022-12-22T09:35:08.796Z,13.48
2022-12-22T09:40:11.109Z,17.10
2022-12-22T09:45:21.025Z,18.67
2022-12-22T09:50:27.044Z,20.00
2022-12-22T09:55:47.211Z,23.38
2022-12-22T10:00:55.742Z,21.52
2022-12-22T10:06:16.419Z,24.70
2022-12-22T10:11:19.178Z,23.00
2022-12-22T10:16:24.967Z,28.30
2022-12-22T10:21:26.800Z,25.42
2022-12-22T10:26:34.269Z,24.42
2022-12-22T10:31:39.999Z,25.52
2022-12-22T10:36:48.231Z,26.92
2022-12-22T10:41:52.219Z,26.75
2022-12-22T10:46:57.090Z,28.60
2022-12-22T10:52:27.652Z,25.25
2022-12-22T10:57:31.581Z,24.73
2022-12-22T11:02:38.152Z,26.90
2022-12-22T11:07:44.443Z,21.50
2022-12-22T11:13:10.489Z,25.27
2022-12-22T11:18:30.288Z,22.83
2022-12-22T11:23:54.317Z,22.25
2022-12-22T11:29:27.124Z,25.35
2022-12-22T11:34:58.192Z,24.02
2022-12-22T11:40:33.294Z,24.10
2022-12-22T11:46:13.041Z,26.67
2022-12-22T11:51:27.740Z,19.88
2022-12-22T11:56:38.615Z,19.35
2022-12-22T12:02:07.664Z,21.20
2022-12-22T12:07:12.139Z,14.77
2022-12-22T12:12:32.425Z,13.63
2022-12-22T12:18:05.149Z,19.10
2022-12-22T12:23:12.816Z,13.50
2022-12-22T12:28:50.117Z,12.73
2022-12-22T12:34:01.029Z,11.40
2022-12-22T12:39:37.836Z,10.70
2022-12-22T12:44:40.258Z,11.63
2022-12-22T12:50:02.910Z,13.55
2022-12-22T12:55:32.953Z,13.93
2022-12-22T13:00:35.388Z,11.13
2022-12-22T13:05:53.198Z,10.80
2022-12-22T13:10:54.822Z,13.07
2022-12-22T13:16:02.629Z,8.93
2022-12-22T13:21:52.482Z,9.50
2022-12-22T13:26:52.193Z,11.30
2022-12-22T13:32:25.112Z,8.60
2022-12-22T13:37:29.358Z,10.10
2022-12-22T13:47:32.928Z,10.05
2022-12-22T13:52:39.835Z,10.60
2022-12-22T13:57:41.652Z,11.57
2022-12-22T14:02:45.251Z,7.97
2022-12-22T14:08:00.534Z,11.27
2022-12-22T14:13:07.501Z,11.82
2022-12-22T14:18:24.652Z,9.18
2022-12-22T14:23:31.336Z,10.52
2022-12-22T14:28:50.378Z,13.38
2022-12-22T14:34:03.309Z,12.52
2022-12-22T14:39:10.397Z,13.35
2022-12-22T14:44:18.144Z,12.32
2022-12-22T14:49:19.987Z,14.25
2022-12-22T14:54:25.700Z,11.48
2022-12-22T14:59:28.807Z,11.13
2022-12-22T15:04:30.972Z,12.05
2022-12-22T15:10:13.149Z,13.07
2022-12-22T15:14:54.537Z,12.73
2022-12-22T15:19:58.456Z,16.38
2022-12-22T15:25:00.245Z,17.08
2022-12-22T15:30:02.091Z,20.42
2022-12-22T15:35:10.463Z,20.70
2022-12-22T15:40:31.572Z,16.15
2022-12-22T15:45:36.013Z,14.98
2022-12-22T15:50:41.543Z,15.38
2022-12-22T15:55:47.159Z,15.15
2022-12-22T16:00:48.881Z,17.08
2022-12-22T16:31:53.200Z,2.20
2022-12-22T16:36:55.057Z,3.17
2022-12-22T16:41:59.967Z,3.17
2022-12-22T16:47:04.808Z,4.20
2022-12-22T16:52:06.640Z,7.80
2022-12-22T16:57:08.690Z,5.13
2022-12-22T17:02:28.329Z,3.80
2022-12-22T17:07:33.497Z,4.38
2022-12-22T17:12:35.303Z,3.85
2022-12-22T17:17:42.131Z,7.05
2022-12-22T17:22:56.666Z,8.90
2022-12-22T17:28:01.506Z,5.72
2022-12-22T17:33:03.321Z,8.05
2022-12-22T17:38:04.999Z,7.13
2022-12-22T17:43:06.739Z,5.60
2022-12-22T17:48:08.830Z,4.63
2022-12-22T17:53:19.489Z,6.80
2022-12-22T17:58:21.297Z,4.68
2022-12-22T18:03:23.160Z,5.32
2022-12-22T18:08:24.935Z,7.70
2022-12-22T18:13:26.799Z,5.13
2022-12-22T18:18:28.657Z,5.65
2022-12-22T18:23:32.610Z,9.05
2022-12-22T18:28:34.304Z,4.35
2022-12-22T18:33:36.066Z,7.63
2022-12-22T18:38:37.775Z,4.90
2022-12-22T18:43:39.695Z,6.18
2022-12-22T18:48:41.502Z,6.78
2022-12-22T18:53:43.289Z,4.63
2022-12-22T18:58:46.083Z,8.10
2022-12-22T19:03:48.657Z,7.57
2022-12-22T19:08:51.216Z,9.93
2022-12-22T19:13:53.036Z,8.02
2022-12-22T19:18:57.055Z,10.68
2022-12-22T19:23:58.922Z,12.10
2022-12-22T19:29:01.458Z,11.38
2022-12-22T19:34:06.125Z,9.10
2022-12-22T19:39:07.810Z,12.02
2022-12-22T19:44:26.264Z,14.60
2022-12-22T19:49:28.727Z,11.98
2022-12-22T19:54:32.359Z,13.90
2022-12-22T19:59:42.553Z,12.83
2022-12-22T20:04:44.297Z,19.27
2022-12-22T20:09:46.295Z,15.85
2022-12-22T20:14:48.008Z,15.73
2022-12-22T20:19:49.767Z,16.40
2022-12-22T20:24:52.311Z,16.75
2022-12-22T20:29:54.292Z,17.23
2022-12-22T20:34:56.385Z,20.10
2022-12-22T20:39:57.996Z,20.30
2022-12-22T20:45:03.288Z,15.77
2022-12-22T20:50:23.299Z,16.52
2022-12-22T20:55:28.111Z,20.05
2022-12-22T21:00:29.789Z,22.92
2022-12-22T21:05:31.523Z,22.73
2022-12-22T21:10:33.220Z,20.83
2022-12-22T21:15:35.163Z,23.73
2022-12-22T21:20:36.858Z,17.52
2022-12-22T21:25:43.183Z,27.88
2022-12-22T21:30:48.211Z,24.88
2022-12-22T21:35:51.501Z,30.70
2022-12-22T21:40:53.347Z,25.65
2022-12-22T21:45:55.181Z,30.52
2022-12-22T21:50:56.924Z,24.65
2022-12-22T21:55:58.654Z,31.33
2022-12-22T22:01:00.476Z,25.17
2022-12-22T22:06:02.271Z,32.30
2022-12-22T22:11:04.083Z,34.45
2022-12-22T22:16:07.889Z,23.92
2022-12-22T22:21:11.344Z,31.48
2022-12-22T22:26:13.163Z,26.23
2022-12-22T22:31:14.954Z,33.45
2022-12-22T22:36:16.784Z,34.67
2022-12-22T22:41:18.572Z,33.13
2022-12-22T22:46:20.357Z,28.80
2022-12-22T22:51:22.102Z,32.03
2022-12-22T22:56:23.805Z,33.80
2022-12-22T23:01:25.560Z,39.72
2022-12-22T23:06:27.320Z,36.08
2022-12-22T23:11:29.103Z,28.88
2022-12-22T23:16:35.750Z,31.25
2022-12-22T23:21:39.993Z,35.92
2022-12-22T23:26:41.685Z,24.23
2022-12-22T23:31:43.692Z,33.75
2022-12-22T23:36:45.426Z,33.53
2022-12-22T23:41:47.114Z,38.95
2022-12-22T23:46:48.932Z,32.83
2022-12-22T23:51:50.605Z,39.30
2022-12-22T23:56:52.727Z,34.15
